Time;durP1;ratioP1;P1;durP2;ratioP2;P2;SDS_P1;SDS_P2;PMS_P1;PMS_P2;Temp;Humidity;BMP_temperature;BMP_pressure;BME280_temperature;BME280_humidity;BME280_pressure;Samples;Min_cycle;Max_cycle;Signal;HPM_P1;HPM_P2
2022/11/26 00:00:44;;;;;;;13.65;3.80;;;;;;;;;;5068111;28;20101;-73
2022/11/26 00:03:11;;;;;;;16.20;3.60;;;;;;;;;;5051555;28;20070;-73
2022/11/26 00:05:37;;;;;;;14.90;3.45;;;;;;;;;;5049710;28;20045;-73
2022/11/26 00:08:03;;;;;;;13.25;3.60;;;;;;;;;;5048259;28;20048;-73
2022/11/26 00:10:33;;;;;;;10.75;3.85;;;;;;;;;;5079730;28;20048;-73
2022/11/26 00:12:59;;;;;;;14.07;3.78;;;;;;;;;;5053007;28;20071;-73
2022/11/26 00:15:29;;;;;;;13.38;3.25;;;;;;;;;;5074345;28;20139;-78
2022/11/26 00:17:56;;;;;;;19.73;4.20;;;;;;;;;;5057121;28;20369;-79
2022/11/26 00:20:28;;;;;;;14.90;3.92;;;;;;;;;;5053915;28;20453;-79
2022/11/26 00:22:57;;;;;;;16.67;4.05;;;;;;;;;;5074573;28;20083;-79
2022/11/26 00:25:24;;;;;;;15.00;4.32;;;;;;;;;;5083200;28;20094;-79
2022/11/26 00:27:52;;;;;;;16.55;3.70;;;;;;;;;;5070830;28;20048;-80
2022/11/26 00:30:22;;;;;;;15.43;3.70;;;;;;;;;;5082464;28;20075;-78
2022/11/26 00:32:48;;;;;;;10.57;4.15;;;;;;;;;;5084018;28;20076;-79
2022/11/26 00:35:15;;;;;;;21.48;4.07;;;;;;;;;;5072171;28;20036;-79
2022/11/26 00:37:43;;;;;;;19.33;4.00;;;;;;;;;;5052350;28;20075;-80
2022/11/26 00:40:23;;;;;;;12.75;3.50;;;;;;;;;;5053853;28;20515;-80
2022/11/26 00:42:49;;;;;;;14.00;3.70;;;;;;;;;;5083132;28;20408;-79
2022/11/26 00:45:17;;;;;;;14.75;3.55;;;;;;;;;;5073338;28;20040;-80
2022/11/26 00:47:43;;;;;;;18.30;3.85;;;;;;;;;;5065119;28;20049;-80
2022/11/26 00:50:13;;;;;;;15.88;3.90;;;;;;;;;;5070049;28;20119;-79
2022/11/26 00:52:39;;;;;;;15.65;3.90;;;;;;;;;;5080616;28;20064;-80
2022/11/26 00:55:26;;;;;;;13.43;4.05;;;;;;;;;;5050308;28;20186;-79
2022/11/26 00:57:53;;;;;;;15.50;3.95;;;;;;;;;;5053440;28;20052;-80
2022/11/26 01:00:20;;;;;;;18.35;4.10;;;;;;;;;;5070569;28;20036;-80
2022/11/26 01:02:46;;;;;;;11.93;3.78;;;;;;;;;;5069304;28;20098;-80
2022/11/26 01:05:16;;;;;;;17.67;4.30;;;;;;;;;;5053700;28;20048;-79
2022/11/26 01:07:42;;;;;;;18.08;4.07;;;;;;;;;;5051729;28;20052;-79
2022/11/26 01:10:16;;;;;;;18.13;3.80;;;;;;;;;;5050899;28;20552;-79
2022/11/26 01:12:42;;;;;;;18.17;4.20;;;;;;;;;;5083128;28;20134;-80
2022/11/26 01:15:09;;;;;;;14.98;4.10;;;;;;;;;;5049822;28;20989;-79
2022/11/26 01:17:35;;;;;;;15.93;4.68;;;;;;;;;;5051086;28;20043;-79
2022/11/26 01:20:01;;;;;;;17.95;4.32;;;;;;;;;;5083338;28;20083;-79
2022/11/26 01:22:27;;;;;;;13.95;4.10;;;;;;;;;;5064777;28;20044;-80
2022/11/26 01:24:53;;;;;;;18.25;4.57;;;;;;;;;;5079577;28;20518;-79
2022/11/26 01:27:20;;;;;;;20.23;4.07;;;;;;;;;;5081467;28;21243;-80
2022/11/26 01:29:46;;;;;;;12.52;4.10;;;;;;;;;;5052190;28;20054;-80
2022/11/26 01:32:12;;;;;;;16.90;3.88;;;;;;;;;;5068571;28;20045;-79
2022/11/26 01:34:38;;;;;;;14.55;4.22;;;;;;;;;;5053839;28;20036;-80
2022/11/26 01:37:10;;;;;;;14.52;4.25;;;;;;;;;;5049606;28;20040;-80
2022/11/26 01:39:36;;;;;;;11.07;4.32;;;;;;;;;;5070011;28;20048;-80
2022/11/26 01:42:24;;;;;;;16.67;5.32;;;;;;;;;;5055330;28;20090;-80
2022/11/26 01:44:50;;;;;;;19.15;4.53;;;;;;;;;;5049749;28;20076;-80
2022/11/26 01:47:19;;;;;;;13.73;4.40;;;;;;;;;;5046048;28;20040;-80
2022/11/26 01:50:04;;;;;;;15.07;4.72;;;;;;;;;;5050352;28;20131;-79
2022/11/26 01:52:30;;;;;;;20.80;4.95;;;;;;;;;;5068612;28;20047;-79
2022/11/26 01:54:56;;;;;;;17.10;4.45;;;;;;;;;;5051481;28;20044;-79
2022/11/26 01:57:24;;;;;;;13.13;4.25;;;;;;;;;;5067048;28;20411;-80
2022/11/26 01:59:53;;;;;;;18.70;4.50;;;;;;;;;;5083101;28;20082;-79
2022/11/26 02:02:22;;;;;;;17.27;4.28;;;;;;;;;;5080821;28;20044;-79
2022/11/26 02:04:57;;;;;;;18.17;4.50;;;;;;;;;;5068829;28;20048;-79
2022/11/26 02:07:26;;;;;;;14.30;5.10;;;;;;;;;;5069453;28;20151;-79
2022/11/26 02:09:52;;;;;;;13.30;4.00;;;;;;;;;;5080487;28;20036;-79
2022/11/26 02:12:20;;;;;;;17.83;4.68;;;;;;;;;;5067161;28;20040;-79
2022/11/26 02:14:47;;;;;;;16.48;4.32;;;;;;;;;;5068776;28;20129;-80
2022/11/26 02:17:13;;;;;;;17.52;4.40;;;;;;;;;;5063853;28;20097;-80
2022/11/26 02:19:39;;;;;;;15.93;4.28;;;;;;;;;;5070307;28;20115;-80
2022/11/26 02:22:23;;;;;;;17.52;4.72;;;;;;;;;;5067137;28;20169;-80
2022/11/26 02:24:55;;;;;;;15.05;4.78;;;;;;;;;;5067912;28;20067;-80
2022/11/26 02:27:33;;;;;;;12.07;3.78;;;;;;;;;;5049351;28;20497;-80
2022/11/26 02:29:59;;;;;;;13.90;4.40;;;;;;;;;;5081617;28;20426;-79
2022/11/26 02:32:35;;;;;;;16.05;4.90;;;;;;;;;;5068497;28;20075;-80
2022/11/26 02:35:03;;;;;;;18.88;4.63;;;;;;;;;;5051525;28;20044;-80
2022/11/26 02:37:33;;;;;;;15.85;4.75;;;;;;;;;;5071324;28;20049;-79
2022/11/26 02:39:59;;;;;;;16.80;4.70;;;;;;;;;;5064457;28;20045;-79
2022/11/26 02:42:30;;;;;;;16.05;5.30;;;;;;;;;;5068294;28;20045;-79
2022/11/26 02:44:58;;;;;;;17.70;5.18;;;;;;;;;;5069172;28;20131;-80
2022/11/26 02:47:26;;;;;;;14.35;4.97;;;;;;;;;;5049726;28;20101;-79
2022/11/26 02:49:54;;;;;;;13.10;4.85;;;;;;;;;;5067502;28;20071;-80
2022/11/26 02:52:20;;;;;;;16.20;5.22;;;;;;;;;;5066552;28;20071;-79
2022/11/26 02:54:47;;;;;;;15.45;4.97;;;;;;;;;;5066699;28;20036;-80
2022/11/26 02:57:14;;;;;;;17.25;4.88;;;;;;;;;;5052130;28;20058;-80
2022/11/26 02:59:40;;;;;;;22.15;5.43;;;;;;;;;;5074988;28;20369;-80
2022/11/26 03:02:13;;;;;;;12.40;4.47;;;;;;;;;;5068449;28;20514;-80
2022/11/26 03:04:42;;;;;;;16.83;5.00;;;;;;;;;;5070762;28;20105;-80
2022/11/26 03:07:09;;;;;;;17.73;5.28;;;;;;;;;;5053428;28;20066;-79
2022/11/26 03:09:48;;;;;;;13.60;4.43;;;;;;;;;;5048650;28;20393;-80
2022/11/26 03:12:14;;;;;;;15.77;5.20;;;;;;;;;;5050822;28;20044;-79
2022/11/26 03:14:40;;;;;;;14.95;4.38;;;;;;;;;;5066194;28;20093;-80
2022/11/26 03:17:06;;;;;;;19.52;5.07;;;;;;;;;;5048979;28;20087;-79
2022/11/26 03:19:32;;;;;;;17.98;4.70;;;;;;;;;;5051226;28;20044;-80
2022/11/26 03:21:58;;;;;;;16.20;4.85;;;;;;;;;;5079632;28;20551;-79
2022/11/26 03:24:24;;;;;;;17.20;4.60;;;;;;;;;;5080343;28;20078;-80
2022/11/26 03:26:50;;;;;;;19.02;5.00;;;;;;;;;;5079423;28;20052;-80
2022/11/26 03:29:16;;;;;;;19.50;5.35;;;;;;;;;;5060591;28;20037;-79
2022/11/26 03:31:42;;;;;;;16.52;4.88;;;;;;;;;;5049728;28;20519;-80
2022/11/26 03:34:08;;;;;;;17.25;5.25;;;;;;;;;;5065056;28;20068;-79
2022/11/26 03:36:34;;;;;;;16.02;4.82;;;;;;;;;;5064893;28;20075;-79
2022/11/26 03:39:00;;;;;;;15.93;4.88;;;;;;;;;;5079323;28;20049;-79
2022/11/26 03:41:26;;;;;;;19.52;5.30;;;;;;;;;;5077048;28;20063;-80
2022/11/26 03:43:52;;;;;;;23.35;5.53;;;;;;;;;;5068196;28;20048;-79
2022/11/26 03:46:18;;;;;;;17.45;5.40;;;;;;;;;;5064309;28;20037;-80
2022/11/26 03:48:45;;;;;;;17.17;5.32;;;;;;;;;;5049757;28;20045;-80
2022/11/26 03:51:11;;;;;;;17.13;5.13;;;;;;;;;;5064792;28;20044;-80
2022/11/26 03:53:37;;;;;;;18.05;5.85;;;;;;;;;;5049899;28;20045;-79
2022/11/26 03:56:03;;;;;;;15.40;5.70;;;;;;;;;;5047026;28;20040;-79
2022/11/26 03:58:29;;;;;;;19.45;5.22;;;;;;;;;;5069233;28;20443;-80
2022/11/26 04:00:55;;;;;;;17.90;5.85;;;;;;;;;;5045921;28;20455;-78
2022/11/26 04:03:21;;;;;;;16.45;5.35;;;;;;;;;;5066775;28;20538;-79
2022/11/26 04:05:47;;;;;;;19.20;5.97;;;;;;;;;;5063289;28;20072;-78
2022/11/26 04:08:13;;;;;;;19.40;5.93;;;;;;;;;;5066171;28;20041;-79
2022/11/26 04:10:39;;;;;;;18.77;5.40;;;;;;;;;;5066460;28;20409;-79
2022/11/26 04:13:05;;;;;;;15.68;5.68;;;;;;;;;;5067689;28;20411;-78
2022/11/26 04:15:31;;;;;;;18.13;5.95;;;;;;;;;;5047002;28;20641;-79
2022/11/26 04:17:57;;;;;;;19.65;5.85;;;;;;;;;;5065667;28;20067;-78
2022/11/26 04:20:23;;;;;;;18.50;5.90;;;;;;;;;;5078744;28;20049;-79
2022/11/26 04:22:49;;;;;;;21.27;5.75;;;;;;;;;;5063167;28;20124;-79
2022/11/26 04:25:18;;;;;;;23.85;5.70;;;;;;;;;;5046882;28;20470;-78
2022/11/26 04:27:44;;;;;;;23.63;6.10;;;;;;;;;;5065481;28;20056;-79
2022/11/26 04:30:11;;;;;;;19.80;5.65;;;;;;;;;;5065327;28;20136;-79
2022/11/26 04:32:38;;;;;;;18.00;6.60;;;;;;;;;;5065812;28;20036;-79
2022/11/26 04:35:05;;;;;;;18.90;5.72;;;;;;;;;;5047755;28;20114;-79
2022/11/26 04:37:31;;;;;;;17.92;5.30;;;;;;;;;;5068093;28;20117;-79
2022/11/26 04:39:57;;;;;;;20.75;5.97;;;;;;;;;;5076861;28;20060;-78
2022/11/26 04:42:23;;;;;;;19.52;5.97;;;;;;;;;;5064118;28;20076;-79
2022/11/26 04:44:49;;;;;;;20.95;6.30;;;;;;;;;;5069991;28;20044;-79
2022/11/26 04:47:16;;;;;;;17.02;6.93;;;;;;;;;;5047017;28;20562;-78
2022/11/26 04:49:42;;;;;;;24.55;6.18;;;;;;;;;;5083590;28;20093;-79
2022/11/26 04:52:08;;;;;;;20.20;6.55;;;;;;;;;;5045198;28;20060;-78
2022/11/26 04:54:34;;;;;;;23.30;6.20;;;;;;;;;;5047469;28;20041;-78
2022/11/26 04:57:00;;;;;;;17.33;6.53;;;;;;;;;;5062817;28;20037;-79
2022/11/26 04:59:29;;;;;;;22.40;6.55;;;;;;;;;;5067079;28;20047;-79
2022/11/26 05:01:55;;;;;;;16.95;6.55;;;;;;;;;;5081770;28;20106;-78
2022/11/26 05:04:21;;;;;;;21.00;6.60;;;;;;;;;;5070104;28;20097;-79
2022/11/26 05:06:47;;;;;;;20.63;6.80;;;;;;;;;;5069973;28;20044;-79
2022/11/26 05:09:13;;;;;;;21.13;5.88;;;;;;;;;;5073858;28;20122;-79
2022/11/26 05:11:39;;;;;;;16.85;6.35;;;;;;;;;;5068909;28;20044;-79
2022/11/26 05:14:05;;;;;;;19.67;6.93;;;;;;;;;;5080638;28;20123;-78
2022/11/26 05:16:31;;;;;;;19.02;6.55;;;;;;;;;;5081778;28;20131;-78
2022/11/26 05:18:57;;;;;;;21.75;6.53;;;;;;;;;;5083758;28;20048;-78
2022/11/26 05:21:23;;;;;;;20.27;6.38;;;;;;;;;;5068047;28;20113;-79
2022/11/26 05:23:49;;;;;;;20.83;6.78;;;;;;;;;;5068245;28;20076;-79
2022/11/26 05:26:15;;;;;;;19.92;6.63;;;;;;;;;;5067724;28;20064;-79
2022/11/26 05:28:41;;;;;;;19.33;6.38;;;;;;;;;;5051865;28;20074;-79
2022/11/26 05:31:07;;;;;;;20.92;6.68;;;;;;;;;;5047974;28;20080;-79
2022/11/26 05:33:33;;;;;;;24.00;7.20;;;;;;;;;;5054091;28;20507;-79
2022/11/26 05:36:00;;;;;;;20.33;6.70;;;;;;;;;;5052579;28;20041;-78
2022/11/26 05:38:26;;;;;;;23.67;7.20;;;;;;;;;;5067217;28;20040;-79
2022/11/26 05:40:52;;;;;;;18.90;6.03;;;;;;;;;;5048305;28;20415;-78
2022/11/26 05:43:18;;;;;;;21.25;7.20;;;;;;;;;;5051862;28;20044;-79
2022/11/26 05:45:44;;;;;;;16.80;6.65;;;;;;;;;;5068457;28;20048;-79
2022/11/26 05:48:10;;;;;;;25.33;7.45;;;;;;;;;;5046464;28;20113;-79
2022/11/26 05:50:36;;;;;;;23.08;6.15;;;;;;;;;;5052430;28;20037;-79
2022/11/26 05:53:02;;;;;;;21.45;6.95;;;;;;;;;;5050863;28;20044;-79
2022/11/26 05:55:28;;;;;;;22.25;7.43;;;;;;;;;;5048200;28;20059;-79
2022/11/26 05:57:54;;;;;;;24.52;6.97;;;;;;;;;;5048990;28;20040;-79
2022/11/26 06:00:20;;;;;;;20.55;6.20;;;;;;;;;;5079506;28;20048;-79
2022/11/26 06:02:46;;;;;;;16.48;6.78;;;;;;;;;;5079465;28;20759;-79
2022/11/26 06:05:12;;;;;;;19.80;6.65;;;;;;;;;;5073522;28;20064;-79
2022/11/26 06:07:38;;;;;;;17.55;6.50;;;;;;;;;;5069729;28;20052;-79
2022/11/26 06:10:05;;;;;;;19.02;7.03;;;;;;;;;;5051718;28;20045;-78
2022/11/26 06:12:31;;;;;;;20.48;6.15;;;;;;;;;;5049831;28;20064;-79
2022/11/26 06:14:57;;;;;;;22.48;6.55;;;;;;;;;;5081327;28;20051;-79
2022/11/26 06:17:23;;;;;;;22.63;6.80;;;;;;;;;;5050162;28;20087;-79
2022/11/26 06:19:49;;;;;;;19.27;6.25;;;;;;;;;;5069798;28;20048;-78
2022/11/26 06:22:15;;;;;;;18.30;6.35;;;;;;;;;;5047982;28;20093;-79
2022/11/26 06:24:41;;;;;;;20.25;6.40;;;;;;;;;;5047871;28;20044;-79
2022/11/26 06:27:07;;;;;;;19.15;6.47;;;;;;;;;;5070417;28;20780;-79
2022/11/26 06:29:33;;;;;;;26.25;7.03;;;;;;;;;;5076516;28;20044;-79
2022/11/26 06:31:59;;;;;;;16.05;6.80;;;;;;;;;;5065542;28;20388;-79
2022/11/26 06:34:25;;;;;;;21.15;6.75;;;;;;;;;;5069081;28;22094;-79
2022/11/26 06:36:51;;;;;;;19.55;6.72;;;;;;;;;;5081259;28;20128;-79
2022/11/26 06:39:20;;;;;;;21.27;6.75;;;;;;;;;;5076482;28;20052;-79
2022/11/26 06:41:46;;;;;;;20.58;7.57;;;;;;;;;;5050815;28;20048;-79
2022/11/26 06:44:12;;;;;;;30.60;7.65;;;;;;;;;;5059091;28;20128;-79
2022/11/26 06:46:38;;;;;;;19.88;6.80;;;;;;;;;;5049005;28;20393;-79
2022/11/26 06:49:05;;;;;;;24.15;6.93;;;;;;;;;;5052366;28;20041;-79
2022/11/26 06:51:31;;;;;;;20.73;6.95;;;;;;;;;;5067329;28;20063;-79
2022/11/26 06:53:57;;;;;;;21.98;6.43;;;;;;;;;;5047525;28;20131;-79
2022/11/26 06:56:23;;;;;;;24.45;6.75;;;;;;;;;;5066952;28;20051;-79
2022/11/26 06:58:53;;;;;;;17.15;6.57;;;;;;;;;;5048530;28;20443;-78
2022/11/26 07:01:22;;;;;;;20.35;6.38;;;;;;;;;;5054528;28;20040;-79
2022/11/26 07:03:48;;;;;;;20.63;6.72;;;;;;;;;;5047232;28;20053;-79
2022/11/26 07:06:22;;;;;;;17.63;6.00;;;;;;;;;;5048689;28;20132;-79
2022/11/26 07:08:49;;;;;;;19.23;6.28;;;;;;;;;;5076109;28;20127;-79
2022/11/26 07:11:15;;;;;;;20.17;5.97;;;;;;;;;;5076164;28;20054;-79
2022/11/26 07:13:41;;;;;;;20.02;6.13;;;;;;;;;;5067843;28;20039;-79
2022/11/26 07:16:07;;;;;;;18.98;6.43;;;;;;;;;;5053079;28;20075;-78
2022/11/26 07:18:33;;;;;;;19.13;5.93;;;;;;;;;;5048478;28;20567;-78
2022/11/26 07:21:07;;;;;;;18.38;5.95;;;;;;;;;;5064112;28;20053;-78
2022/11/26 07:23:33;;;;;;;19.77;5.95;;;;;;;;;;5066852;28;20040;-79
2022/11/26 07:25:59;;;;;;;23.02;6.43;;;;;;;;;;5081271;28;20059;-78
2022/11/26 07:28:25;;;;;;;23.35;6.93;;;;;;;;;;5065233;28;20036;-78
2022/11/26 07:30:54;;;;;;;16.98;5.78;;;;;;;;;;5078363;28;20078;-78
2022/11/26 07:33:20;;;;;;;23.48;6.45;;;;;;;;;;5064876;28;20036;-79
2022/11/26 07:35:46;;;;;;;15.18;5.95;;;;;;;;;;5079443;28;20495;-78
2022/11/26 07:38:12;;;;;;;20.55;6.20;;;;;;;;;;5046590;28;20113;-79
2022/11/26 07:40:38;;;;;;;20.83;6.20;;;;;;;;;;5069922;28;20052;-79
2022/11/26 07:43:04;;;;;;;22.20;5.95;;;;;;;;;;5052350;28;20044;-79
2022/11/26 07:45:30;;;;;;;16.35;5.82;;;;;;;;;;5066768;28;20456;-79
2022/11/26 07:47:56;;;;;;;18.10;6.07;;;;;;;;;;5046896;28;20503;-79
2022/11/26 07:50:22;;;;;;;20.17;6.32;;;;;;;;;;5078684;28;21259;-79
2022/11/26 07:52:51;;;;;;;17.77;5.95;;;;;;;;;;5079682;28;20195;-79
2022/11/26 07:55:17;;;;;;;17.52;5.93;;;;;;;;;;5076925;28;20048;-79
2022/11/26 07:57:43;;;;;;;25.58;7.47;;;;;;;;;;5077750;28;20044;-79
2022/11/26 08:00:09;;;;;;;18.90;6.68;;;;;;;;;;5046348;28;20449;-80
2022/11/26 08:02:35;;;;;;;14.77;5.97;;;;;;;;;;5069120;28;20051;-79
2022/11/26 08:05:01;;;;;;;20.58;6.38;;;;;;;;;;5066989;28;20036;-79
2022/11/26 08:07:27;;;;;;;18.23;5.88;;;;;;;;;;5066197;28;20393;-79
2022/11/26 08:09:53;;;;;;;17.00;6.45;;;;;;;;;;5064350;28;20040;-80
2022/11/26 08:12:19;;;;;;;20.00;7.40;;;;;;;;;;5049869;28;20051;-79
2022/11/26 08:14:45;;;;;;;22.25;6.55;;;;;;;;;;5067056;28;20040;-79
2022/11/26 08:17:11;;;;;;;20.23;7.25;;;;;;;;;;5066453;28;20040;-79
2022/11/26 08:19:37;;;;;;;20.17;7.05;;;;;;;;;;5064279;28;20041;-79
2022/11/26 08:22:03;;;;;;;19.60;7.65;;;;;;;;;;5050279;28;20544;-79
2022/11/26 08:24:30;;;;;;;20.02;7.57;;;;;;;;;;5068646;28;20044;-79
2022/11/26 08:26:58;;;;;;;17.30;6.43;;;;;;;;;;5051124;28;20059;-78
2022/11/26 08:29:24;;;;;;;19.13;7.53;;;;;;;;;;5075934;28;20048;-79
2022/11/26 08:31:53;;;;;;;21.23;7.70;;;;;;;;;;5064452;28;20416;-79
2022/11/26 08:34:19;;;;;;;20.08;7.70;;;;;;;;;;5050633;28;20039;-79
2022/11/26 08:36:45;;;;;;;17.75;7.50;;;;;;;;;;5085373;28;20048;-79
2022/11/26 08:39:13;;;;;;;21.52;7.65;;;;;;;;;;5055671;28;20586;-79
2022/11/26 08:41:39;;;;;;;18.52;7.50;;;;;;;;;;5051894;28;20052;-79
2022/11/26 08:44:05;;;;;;;19.65;7.75;;;;;;;;;;5051646;28;20788;-79
2022/11/26 08:46:31;;;;;;;18.25;7.47;;;;;;;;;;5050731;28;20039;-79
2022/11/26 08:48:57;;;;;;;21.95;8.43;;;;;;;;;;5082643;28;20185;-79
2022/11/26 08:51:24;;;;;;;29.95;15.25;;;;;;;;;;5082909;28;20488;-79
2022/11/26 08:53:50;;;;;;;23.75;12.95;;;;;;;;;;5074464;28;20085;-79
2022/11/26 08:56:16;;;;;;;24.15;8.23;;;;;;;;;;5050848;28;20040;-79
2022/11/26 08:58:47;;;;;;;29.65;8.60;;;;;;;;;;5051504;28;20139;-79
2022/11/26 09:01:13;;;;;;;16.40;8.27;;;;;;;;;;5051804;28;20055;-80
2022/11/26 09:03:39;;;;;;;20.75;7.47;;;;;;;;;;5048221;28;20053;-80
2022/11/26 09:06:06;;;;;;;19.80;7.40;;;;;;;;;;5050666;28;20051;-78
2022/11/26 09:08:43;;;;;;;23.52;8.43;;;;;;;;;;5054132;28;20044;-79
2022/11/26 09:11:10;;;;;;;19.95;7.57;;;;;;;;;;5072960;28;20488;-79
2022/11/26 09:13:36;;;;;;;18.73;8.02;;;;;;;;;;5055167;28;20559;-79
2022/11/26 09:16:01;;;;;;;21.80;7.75;;;;;;;;;;5057177;28;20052;-78
2022/11/26 09:18:27;;;;;;;23.48;8.18;;;;;;;;;;5058185;28;20044;-79
2022/11/26 09:20:53;;;;;;;23.65;8.43;;;;;;;;;;5063976;28;20056;-78
2022/11/26 09:23:22;;;;;;;17.75;8.15;;;;;;;;;;5087188;28;20141;-79
2022/11/26 09:25:49;;;;;;;24.10;9.38;;;;;;;;;;5073951;28;20503;-78
2022/11/26 09:28:15;;;;;;;18.65;8.65;;;;;;;;;;5069926;28;20044;-79
2022/11/26 09:30:41;;;;;;;21.83;8.65;;;;;;;;;;5065179;28;20114;-79
2022/11/26 09:33:07;;;;;;;21.63;8.23;;;;;;;;;;5074849;28;20072;-79
2022/11/26 09:35:33;;;;;;;19.30;9.27;;;;;;;;;;5077752;28;20040;-79
2022/11/26 09:37:59;;;;;;;18.48;8.40;;;;;;;;;;5077379;28;20056;-79
2022/11/26 09:40:30;;;;;;;19.70;9.07;;;;;;;;;;5054623;28;20148;-79
2022/11/26 09:43:06;;;;;;;28.90;10.20;;;;;;;;;;5070725;28;20094;-79
2022/11/26 09:45:35;;;;;;;19.95;9.50;;;;;;;;;;5050843;28;20138;-79
2022/11/26 09:48:02;;;;;;;21.95;9.00;;;;;;;;;;5089372;28;20041;-78
2022/11/26 09:50:30;;;;;;;24.13;10.02;;;;;;;;;;5069594;28;20054;-77
2022/11/26 09:53:08;;;;;;;21.50;10.05;;;;;;;;;;5056586;28;20104;-79
2022/11/26 09:55:35;;;;;;;22.63;9.35;;;;;;;;;;5052095;28;20062;-78
2022/11/26 09:58:14;;;;;;;20.50;10.02;;;;;;;;;;5048931;28;20056;-79
2022/11/26 10:00:42;;;;;;;22.17;10.70;;;;;;;;;;5070750;28;20044;-79
2022/11/26 10:03:11;;;;;;;20.67;9.70;;;;;;;;;;5086927;28;20492;-79
2022/11/26 10:05:43;;;;;;;19.63;10.48;;;;;;;;;;5057086;28;20556;-78
2022/11/26 10:08:23;;;;;;;23.65;10.90;;;;;;;;;;5070617;28;20032;-78
2022/11/26 10:10:54;;;;;;;19.40;9.57;;;;;;;;;;5049986;28;20055;-78
2022/11/26 10:13:21;;;;;;;21.83;10.73;;;;;;;;;;5049429;28;20036;-84
2022/11/26 10:15:49;;;;;;;20.08;10.32;;;;;;;;;;5050247;28;20048;-78
2022/11/26 10:18:15;;;;;;;20.25;10.55;;;;;;;;;;5073960;28;20132;-77
2022/11/26 10:20:44;;;;;;;20.55;10.40;;;;;;;;;;5071978;28;20080;-79
2022/11/26 10:23:13;;;;;;;18.88;10.45;;;;;;;;;;5053937;28;20083;-79
2022/11/26 10:26:00;;;;;;;28.23;10.02;;;;;;;;;;5049110;28;20059;-79
2022/11/26 10:28:26;;;;;;;20.40;9.45;;;;;;;;;;5052900;28;20074;-78
2022/11/26 10:30:58;;;;;;;21.50;10.32;;;;;;;;;;5039278;28;20496;-77
2022/11/26 10:33:27;;;;;;;22.38;10.65;;;;;;;;;;5066370;28;20036;-78
2022/11/26 10:35:53;;;;;;;25.80;11.30;;;;;;;;;;5035390;28;20037;-77
2022/11/26 10:38:19;;;;;;;25.38;11.38;;;;;;;;;;5048346;28;20143;-77
2022/11/26 10:40:45;;;;;;;21.88;11.43;;;;;;;;;;5044923;28;20056;-77
2022/11/26 10:43:17;;;;;;;23.20;10.85;;;;;;;;;;5063673;28;20780;-77
2022/11/26 10:45:48;;;;;;;24.40;11.48;;;;;;;;;;5062283;28;20091;-77
2022/11/26 10:48:16;;;;;;;20.98;10.40;;;;;;;;;;5080115;28;20060;-76
2022/11/26 10:50:43;;;;;;;26.63;13.68;;;;;;;;;;5039656;28;20500;-77
2022/11/26 10:53:35;;;;;;;27.23;11.50;;;;;;;;;;5062413;28;20528;-77
2022/11/26 10:56:04;;;;;;;29.35;12.07;;;;;;;;;;5043268;28;20055;-77
2022/11/26 10:58:32;;;;;;;22.05;11.38;;;;;;;;;;5042714;28;20082;-77
2022/11/26 11:01:00;;;;;;;22.42;10.90;;;;;;;;;;5045646;28;20506;-76
2022/11/26 11:03:35;;;;;;;25.02;11.95;;;;;;;;;;5078248;28;20052;-76
2022/11/26 11:06:19;;;;;;;26.55;12.35;;;;;;;;;;5062381;28;20098;-76
2022/11/26 11:08:46;;;;;;;27.13;12.45;;;;;;;;;;5068528;28;20044;-78
2022/11/26 11:11:21;;;;;;;23.35;12.60;;;;;;;;;;5049198;28;20140;-77
2022/11/26 11:13:48;;;;;;;21.27;12.05;;;;;;;;;;5064496;28;20471;-77
2022/11/26 11:16:15;;;;;;;26.10;12.20;;;;;;;;;;5051746;28;20488;-77
2022/11/26 11:18:53;;;;;;;23.33;11.70;;;;;;;;;;5066831;28;20105;-76
2022/11/26 11:21:20;;;;;;;22.75;12.45;;;;;;;;;;5063724;28;20068;-76
2022/11/26 11:23:47;;;;;;;27.08;12.13;;;;;;;;;;5071620;28;20097;-76
2022/11/26 11:26:18;;;;;;;23.70;11.52;;;;;;;;;;5051396;28;20420;-76
2022/11/26 11:28:51;;;;;;;19.30;11.85;;;;;;;;;;5049937;28;20052;-76
2022/11/26 11:31:18;;;;;;;27.65;11.65;;;;;;;;;;5079927;28;20508;-76
2022/11/26 11:33:45;;;;;;;24.92;11.73;;;;;;;;;;5079389;28;20036;-76
2022/11/26 11:36:14;;;;;;;22.50;11.15;;;;;;;;;;5063339;28;20048;-75
2022/11/26 11:38:57;;;;;;;24.33;10.95;;;;;;;;;;5068973;28;20040;-75
2022/11/26 11:41:35;;;;;;;21.20;11.43;;;;;;;;;;5049680;28;20057;-75
2022/11/26 11:44:20;;;;;;;27.10;12.20;;;;;;;;;;5070327;28;20076;-75
2022/11/26 11:47:05;;;;;;;22.13;12.13;;;;;;;;;;5052734;28;20044;-76
2022/11/26 11:49:49;;;;;;;23.27;11.55;;;;;;;;;;5081752;28;20126;-75
2022/11/26 11:52:24;;;;;;;25.50;11.73;;;;;;;;;;5064316;28;20080;-76
2022/11/26 11:55:09;;;;;;;22.77;12.15;;;;;;;;;;5057635;28;20049;-75
2022/11/26 11:57:44;;;;;;;22.15;11.30;;;;;;;;;;5069170;28;20045;-75
2022/11/26 12:00:12;;;;;;;24.35;12.65;;;;;;;;;;5082441;28;20079;-76
2022/11/26 12:02:38;;;;;;;23.00;12.25;;;;;;;;;;5052207;28;20057;-76
2022/11/26 12:05:23;;;;;;;25.27;11.85;;;;;;;;;;5084187;28;20040;-76
2022/11/26 12:08:21;;;;;;;21.65;12.18;;;;;;;;;;5069827;28;20506;-76
2022/11/26 12:10:47;;;;;;;21.17;11.88;;;;;;;;;;5027481;28;20092;-76
2022/11/26 12:13:14;;;;;;;21.10;11.48;;;;;;;;;;5069988;28;20068;-76
2022/11/26 12:15:50;;;;;;;24.48;11.70;;;;;;;;;;5052819;28;20177;-76
2022/11/26 12:18:25;;;;;;;22.17;11.52;;;;;;;;;;5049509;28;20047;-76
2022/11/26 12:21:15;;;;;;;20.50;11.65;;;;;;;;;;5050521;28;20185;-76
2022/11/26 12:23:59;;;;;;;22.45;11.50;;;;;;;;;;5047759;28;20053;-76
2022/11/26 12:26:34;;;;;;;23.65;11.32;;;;;;;;;;5069526;28;20120;-76
2022/11/26 12:29:04;;;;;;;19.27;11.07;;;;;;;;;;5069101;28;20052;-76
2022/11/26 12:31:34;;;;;;;22.40;12.05;;;;;;;;;;5083610;28;20044;-76
2022/11/26 12:34:05;;;;;;;19.73;12.43;;;;;;;;;;5046728;28;20378;-76
2022/11/26 12:36:35;;;;;;;22.83;12.52;;;;;;;;;;5071682;28;20080;-76
2022/11/26 12:39:17;;;;;;;25.25;11.52;;;;;;;;;;5050194;28;20036;-76
2022/11/26 12:41:47;;;;;;;25.30;12.40;;;;;;;;;;5053396;28;20055;-76
2022/11/26 12:44:19;;;;;;;20.73;11.98;;;;;;;;;;5070140;28;20098;-76
2022/11/26 12:46:59;;;;;;;22.30;12.65;;;;;;;;;;5086791;28;20107;-76
2022/11/26 12:49:37;;;;;;;23.67;12.65;;;;;;;;;;5049281;28;20135;-76
2022/11/26 12:52:12;;;;;;;20.25;13.13;;;;;;;;;;5050275;28;20048;-75
2022/11/26 12:54:43;;;;;;;23.90;13.48;;;;;;;;;;5069552;28;20132;-76
2022/11/26 12:57:38;;;;;;;25.00;12.30;;;;;;;;;;5085159;28;20450;-76
2022/11/26 13:00:11;;;;;;;23.00;12.80;;;;;;;;;;5041320;28;20373;-75
2022/11/26 13:02:40;;;;;;;21.13;12.40;;;;;;;;;;5086078;28;20528;-75
2022/11/26 13:05:06;;;;;;;19.38;12.50;;;;;;;;;;5049359;28;20549;-76
2022/11/26 13:07:35;;;;;;;20.80;12.35;;;;;;;;;;5050279;28;20048;-76
2022/11/26 13:10:16;;;;;;;20.33;12.88;;;;;;;;;;5067249;28;20036;-76
2022/11/26 13:12:46;;;;;;;22.63;13.27;;;;;;;;;;5052449;28;20045;-76
2022/11/26 13:15:25;;;;;;;24.75;12.95;;;;;;;;;;5046647;28;20048;-76
2022/11/26 13:17:51;;;;;;;26.38;12.77;;;;;;;;;;5082240;28;20091;-76
2022/11/26 13:20:32;;;;;;;19.95;11.90;;;;;;;;;;5069453;28;20045;-76
2022/11/26 13:23:09;;;;;;;26.13;13.13;;;;;;;;;;5072540;28;20507;-76
2022/11/26 13:25:48;;;;;;;30.13;15.20;;;;;;;;;;5070272;28;20484;-76
2022/11/26 13:28:30;;;;;;;24.35;12.65;;;;;;;;;;5088351;28;20121;-76
2022/11/26 13:31:20;;;;;;;24.45;12.52;;;;;;;;;;5078065;28;20052;-76
2022/11/26 13:34:04;;;;;;;21.27;11.80;;;;;;;;;;5051927;28;20101;-76
2022/11/26 13:36:49;;;;;;;19.75;12.30;;;;;;;;;;5054593;28;20400;-76
2022/11/26 13:39:34;;;;;;;29.90;13.07;;;;;;;;;;5083035;28;20846;-77
2022/11/26 13:42:08;;;;;;;20.50;11.85;;;;;;;;;;5067133;28;20110;-75
2022/11/26 13:44:39;;;;;;;21.25;11.75;;;;;;;;;;5072387;28;20055;-89
2022/11/26 13:47:08;;;;;;;23.52;12.65;;;;;;;;;;5070622;28;20051;-76
2022/11/26 13:49:43;;;;;;;17.73;11.60;;;;;;;;;;5068154;28;20478;-76
2022/11/26 13:52:25;;;;;;;23.65;10.85;;;;;;;;;;5083203;28;20041;-77
2022/11/26 13:55:29;;;;;;;23.85;11.75;;;;;;;;;;5067469;28;20097;-76
2022/11/26 13:57:58;;;;;;;19.27;10.80;;;;;;;;;;5045817;28;20048;-79
2022/11/26 14:00:31;;;;;;;21.20;11.00;;;;;;;;;;5032642;28;20045;-78
2022/11/26 14:02:58;;;;;;;22.15;10.75;;;;;;;;;;5043811;28;20068;-77
2022/11/26 14:05:44;;;;;;;17.10;10.35;;;;;;;;;;5055607;28;20036;-76
2022/11/26 14:08:29;;;;;;;20.50;11.48;;;;;;;;;;5057201;28;20098;-76
2022/11/26 14:10:55;;;;;;;20.02;11.90;;;;;;;;;;5052462;28;20174;-76
2022/11/26 14:13:21;;;;;;;24.05;12.88;;;;;;;;;;5048337;28;20131;-78
2022/11/26 14:15:51;;;;;;;20.35;11.55;;;;;;;;;;5053868;28;20205;-76
2022/11/26 14:18:17;;;;;;;18.92;10.32;;;;;;;;;;5054047;28;20047;-76
2022/11/26 14:20:59;;;;;;;20.92;10.98;;;;;;;;;;5053118;28;20047;-75
2022/11/26 14:23:43;;;;;;;16.40;10.20;;;;;;;;;;5066505;28;20064;-76
2022/11/26 14:26:25;;;;;;;18.17;11.00;;;;;;;;;;5069981;28;20056;-76
2022/11/26 14:28:52;;;;;;;21.60;10.57;;;;;;;;;;5076630;28;20455;-76
2022/11/26 14:31:23;;;;;;;18.10;11.30;;;;;;;;;;5046144;28;20044;-75
2022/11/26 14:33:51;;;;;;;20.83;11.07;;;;;;;;;;5066538;28;20045;-75
2022/11/26 14:36:22;;;;;;;18.67;11.55;;;;;;;;;;5052307;28;20048;-75
2022/11/26 14:39:04;;;;;;;21.02;12.00;;;;;;;;;;5055330;28;20047;-76